Time;durP1;ratioP1;P1;durP2;ratioP2;P2;SDS_P1;SDS_P2;PMS_P1;PMS_P2;Temp;Humidity;BMP_temperature;BMP_pressure;BME280_temperature;BME280_humidity;BME280_pressure;Samples;Min_cycle;Max_cycle;Signal;HPM_P1;HPM_P2
2022/10/05 00:03:27;;;;;;;;;;;;;;;15.49;71.0498;101690.6;;;;-74
2022/10/05 00:08:28;;;;;;;;;;;;;;;15.48;71.44336;101683.7;;;;-74
2022/10/05 00:13:28;;;;;;;;;;;;;;;15.47;71.48535;101682.6;;;;-73
2022/10/05 00:18:27;;;;;;;;;;;;;;;15.47;71.56348;101681.6;;;;-74
2022/10/05 00:23:28;;;;;;;;;;;;;;;15.45;71.87598;101662.9;;;;-75
2022/10/05 00:27:59;;;;;;;4;1.4;;;;;;;;;;;;;-75
2022/10/05 00:28:29;;;;;;;;;;;;;;;15.45;71.50391;101668.4;;;;-73
2022/10/05 00:33:27;;;;;;;;;;;;;;;15.44;71.77246;101661.5;;;;-74
2022/10/05 00:38:27;;;;;;;;;;;;;;;15.44;72.06348;101652.1;;;;-75
2022/10/05 00:43:44;;;;;;;;;;;;;;;15.42;71.72461;101650.3;;;;-74
2022/10/05 00:48:31;;;;;;;;;;;;;;;15.43;71.9375;101647.3;;;;-73
2022/10/05 00:53:34;;;;;;;;;;;;;;;15.41;71.76758;101628.6;;;;-74
2022/10/05 00:58:02;;;;;;;2.6;1.2;;;;;;;;;;;;;-74
2022/10/05 00:58:32;;;;;;;;;;;;;;;15.41;71.72266;101616.9;;;;-74
2022/10/05 01:03:30;;;;;;;;;;;;;;;15.41;71.75684;101615.5;;;;-77
2022/10/05 01:08:33;;;;;;;;;;;;;;;15.41;71.72168;101608.6;;;;-74
2022/10/05 01:13:31;;;;;;;;;;;;;;;15.4;71.63184;101612.5;;;;-73
2022/10/05 01:18:30;;;;;;;;;;;;;;;15.39;71.60645;101598.9;;;;-73
2022/10/05 01:23:43;;;;;;;;;;;;;;;15.37;71.51367;101586.1;;;;-73
2022/10/05 01:28:03;;;;;;;1.9;1.1;;;;;;;;;;;;;-74
2022/10/05 01:28:29;;;;;;;;;;;;;;;15.38;71.66113;101584.8;;;;-74
2022/10/05 01:33:32;;;;;;;;;;;;;;;15.36;71.1543;101576.4;;;;-74
2022/10/05 01:38:32;;;;;;;;;;;;;;;15.36;70.86133;101571.7;;;;-70
2022/10/05 01:43:32;;;;;;;;;;;;;;;15.34;71.17285;101546.5;;;;-70
2022/10/05 01:48:31;;;;;;;;;;;;;;;15.34;71.02734;101555.1;;;;-70
2022/10/05 01:53:34;;;;;;;;;;;;;;;15.33;70.92285;101555.8;;;;-70
2022/10/05 01:58:04;;;;;;;2.4;1.2;;;;;;;;;;;;;-71
2022/10/05 01:58:31;;;;;;;;;;;;;;;15.31;70.65234;101537.3;;;;-70
2022/10/05 02:03:30;;;;;;;;;;;;;;;15.29;70.35645;101531.3;;;;-70
2022/10/05 02:08:30;;;;;;;;;;;;;;;15.27;70.45605;101530.9;;;;-74
2022/10/05 02:13:31;;;;;;;;;;;;;;;15.27;70.33105;101524.8;;;;-74
2022/10/05 02:18:30;;;;;;;;;;;;;;;15.27;69.94922;101528.5;;;;-74
2022/10/05 02:23:31;;;;;;;;;;;;;;;15.28;70.06348;101533.8;;;;-74
2022/10/05 02:28:05;;;;;;;2.1;1;;;;;;;;;;;;;-74
2022/10/05 02:28:30;;;;;;;;;;;;;;;15.29;69.94141;101539.5;;;;-76
2022/10/05 02:33:30;;;;;;;;;;;;;;;15.29;69.99707;101531.8;;;;-75
2022/10/05 02:38:33;;;;;;;;;;;;;;;15.27;69.83691;101531.1;;;;-74
2022/10/05 02:43:33;;;;;;;;;;;;;;;15.27;69.72656;101531.9;;;;-76
2022/10/05 02:48:32;;;;;;;;;;;;;;;15.28;69.76172;101538.3;;;;-75
2022/10/05 02:53:33;;;;;;;;;;;;;;;15.25;69.80176;101534.6;;;;-74
2022/10/05 02:58:07;;;;;;;2.7;1.1;;;;;;;;;;;;;-74
2022/10/05 02:58:29;;;;;;;;;;;;;;;15.26;69.8584;101537.7;;;;-74
2022/10/05 03:03:33;;;;;;;;;;;;;;;15.24;69.83301;101531.5;;;;-75
2022/10/05 03:08:30;;;;;;;;;;;;;;;15.22;69.69531;101522.5;;;;-73
2022/10/05 03:13:31;;;;;;;;;;;;;;;15.21;70.04199;101524.5;;;;-76
2022/10/05 03:18:31;;;;;;;;;;;;;;;15.2;70.02734;101520.7;;;;-74
2022/10/05 03:23:31;;;;;;;;;;;;;;;15.19;70.09473;101515.3;;;;-74
2022/10/05 03:28:08;;;;;;;2.4;1.2;;;;;;;;;;;;;-74
2022/10/05 03:28:30;;;;;;;;;;;;;;;15.18;70.21582;101503.6;;;;-74
2022/10/05 03:33:33;;;;;;;;;;;;;;;15.18;70.50684;101505;;;;-74
2022/10/05 03:38:31;;;;;;;;;;;;;;;15.16;70.5957;101494.2;;;;-74
2022/10/05 03:43:37;;;;;;;;;;;;;;;15.16;70.63867;101499.4;;;;-73
2022/10/05 03:48:31;;;;;;;;;;;;;;;15.15;70.79297;101485.1;;;;-74
2022/10/05 03:53:29;;;;;;;;;;;;;;;15.14;71.16309;101491.8;;;;-75
2022/10/05 03:58:09;;;;;;;4.2;1.7;;;;;;;;;;;;;-75
2022/10/05 03:58:29;;;;;;;;;;;;;;;15.13;71.14844;101489.6;;;;-75
2022/10/05 04:03:32;;;;;;;;;;;;;;;15.11;70.92285;101484.3;;;;-74
2022/10/05 04:08:31;;;;;;;;;;;;;;;15.1;71.2793;101480;;;;-73
2022/10/05 04:13:32;;;;;;;;;;;;;;;15.09;71.32324;101467.5;;;;-74
2022/10/05 04:18:29;;;;;;;;;;;;;;;15.07;71.47656;101463.9;;;;-74
2022/10/05 04:23:32;;;;;;;;;;;;;;;15.07;71.62305;101463.8;;;;-74
2022/10/05 04:28:12;;;;;;;3.9;1.9;;;;;;;;;;;;;-72
2022/10/05 04:28:30;;;;;;;;;;;;;;;15.06;71.66699;101445.9;;;;-74
2022/10/05 04:33:30;;;;;;;;;;;;;;;15.06;71.39746;101459.5;;;;-74
2022/10/05 04:38:37;;;;;;;;;;;;;;;15.05;71.77539;101450.7;;;;-70
2022/10/05 04:43:32;;;;;;;;;;;;;;;15.05;71.83008;101443.4;;;;-71
2022/10/05 04:48:36;;;;;;;;;;;;;;;15.04;71.7627;101436.9;;;;-71
2022/10/05 04:53:33;;;;;;;;;;;;;;;15.04;71.52734;101438.3;;;;-74
2022/10/05 04:58:13;;;;;;;4.2;2.1;;;;;;;;;;;;;-74
2022/10/05 04:58:33;;;;;;;;;;;;;;;15.02;71.64844;101437.3;;;;-75
2022/10/05 05:03:37;;;;;;;;;;;;;;;15.01;71.85938;101431.6;;;;-73
2022/10/05 05:08:34;;;;;;;;;;;;;;;15;71.45313;101421.9;;;;-74
2022/10/05 05:13:44;;;;;;;;;;;;;;;14.99;71.71094;101422.2;;;;-74
2022/10/05 05:18:39;;;;;;;;;;;;;;;14.98;71.70801;101428.2;;;;-74
2022/10/05 05:23:32;;;;;;;;;;;;;;;14.97;71.37207;101424.8;;;;-74
2022/10/05 05:28:17;;;;;;;5.3;1.8;;;;;;;;;;;;;-76
2022/10/05 05:28:32;;;;;;;;;;;;;;;14.97;71.15723;101422.5;;;;-74
2022/10/05 05:33:32;;;;;;;;;;;;;;;14.96;71.58301;101418.7;;;;-74
2022/10/05 05:38:31;;;;;;;;;;;;;;;14.94;71.5791;101420.3;;;;-75
2022/10/05 05:43:30;;;;;;;;;;;;;;;14.95;71.17676;101420.2;;;;-75
2022/10/05 05:48:37;;;;;;;;;;;;;;;14.94;71.55664;101418.1;;;;-75
2022/10/05 05:53:30;;;;;;;;;;;;;;;14.93;71.18555;101424.4;;;;-74
2022/10/05 05:58:14;;;;;;;2.9;1.4;;;;;;;;;;;;;-75
2022/10/05 05:58:30;;;;;;;;;;;;;;;14.93;71.20703;101422.2;;;;-75
2022/10/05 06:03:30;;;;;;;;;;;;;;;14.93;71.10645;101416;;;;-76
2022/10/05 06:08:31;;;;;;;;;;;;;;;14.93;70.91602;101413.1;;;;-75
2022/10/05 06:13:29;;;;;;;;;;;;;;;14.94;70.95117;101413.9;;;;-75
2022/10/05 06:18:27;;;;;;;;;;;;;;;14.94;70.71582;101418.2;;;;-75
2022/10/05 06:23:30;;;;;;;;;;;;;;;14.95;70.78418;101418.7;;;;-75
2022/10/05 06:28:15;;;;;;;2.5;1;;;;;;;;;;;;;-75
2022/10/05 06:28:27;;;;;;;;;;;;;;;14.95;70.86426;101417.5;;;;-73
2022/10/05 06:33:36;;;;;;;;;;;;;;;14.97;70.68652;101412.6;;;;-75
2022/10/05 06:38:34;;;;;;;;;;;;;;;14.98;70.62109;101415.6;;;;-74
2022/10/05 06:43:38;;;;;;;;;;;;;;;15;70.53418;101422.1;;;;-75
2022/10/05 06:48:30;;;;;;;;;;;;;;;15.03;70.71973;101414.8;;;;-76
2022/10/05 06:53:29;;;;;;;;;;;;;;;15.05;70.63281;101417.9;;;;-74
2022/10/05 06:58:25;;;;;;;2.8;1;;;;;;;;;;;;;-74
2022/10/05 06:58:50;;;;;;;;;;;;;;;15.06;70.63379;101419.6;;;;-73
2022/10/05 07:03:30;;;;;;;;;;;;;;;15.07;70.80371;101416.8;;;;-75
2022/10/05 07:08:30;;;;;;;;;;;;;;;15.1;70.99805;101412.5;;;;-75
2022/10/05 07:13:35;;;;;;;;;;;;;;;15.13;71.10547;101416.4;;;;-75
2022/10/05 07:18:41;;;;;;;;;;;;;;;15.17;70.94336;101415.5;;;;-76
2022/10/05 07:23:34;;;;;;;;;;;;;;;15.2;71.17285;101409.6;;;;-75
2022/10/05 07:28:19;;;;;;;3.2;1.1;;;;;;;;;;;;;-71
2022/10/05 07:28:33;;;;;;;;;;;;;;;15.27;71.11621;101396.8;;;;-73
2022/10/05 07:33:29;;;;;;;;;;;;;;;15.33;71.1582;101396.1;;;;-71
2022/10/05 07:38:31;;;;;;;;;;;;;;;15.37;71.06445;101394;;;;-70
2022/10/05 07:43:33;;;;;;;;;;;;;;;15.45;70.6084;101392.9;;;;-70
2022/10/05 07:48:32;;;;;;;;;;;;;;;15.51;70.95313;101389.5;;;;-75
2022/10/05 07:53:30;;;;;;;;;;;;;;;15.57;70.76074;101391.8;;;;-75
2022/10/05 07:58:22;;;;;;;3.8;1.4;;;;;;;;;;;;;-75
2022/10/05 07:58:34;;;;;;;;;;;;;;;15.66;70.56152;101379.7;;;;-72
2022/10/05 08:03:31;;;;;;;;;;;;;;;15.75;70.60938;101384.2;;;;-75
2022/10/05 08:08:31;;;;;;;;;;;;;;;15.88;70.40527;101385.4;;;;-74
2022/10/05 08:13:32;;;;;;;;;;;;;;;15.93;70.21191;101380.8;;;;-75
2022/10/05 08:18:37;;;;;;;;;;;;;;;15.97;69.99414;101366.9;;;;-75
2022/10/05 08:23:32;;;;;;;;;;;;;;;16.07;69.99805;101379.4;;;;-75
2022/10/05 08:28:23;;;;;;;3.5;1.5;;;;;;;;;;;;;-74
2022/10/05 08:28:36;;;;;;;;;;;;;;;16.16;69.57324;101366.7;;;;-74
2022/10/05 08:33:30;;;;;;;;;;;;;;;16.2;69.39941;101376.6;;;;-75
2022/10/05 08:38:31;;;;;;;;;;;;;;;16.21;69.2334;101371.3;;;;-75
2022/10/05 08:43:37;;;;;;;;;;;;;;;16.28;69.08789;101368;;;;-73
2022/10/05 08:48:43;;;;;;;;;;;;;;;16.31;69.05762;101350.4;;;;-76
2022/10/05 08:53:39;;;;;;;;;;;;;;;16.37;68.88477;101352.6;;;;-75
2022/10/05 08:58:42;;;;;;;4.8;1.9;;;;;;;;;;;;;-76
2022/10/05 08:59:06;;;;;;;;;;;;;;;16.42;68.64746;101343.1;;;;-73
2022/10/05 09:03:44;;;;;;;;;;;;;;;16.49;68.47754;101340.8;;;;-73
2022/10/05 09:08:41;;;;;;;;;;;;;;;16.52;68.30176;101343.2;;;;-75
2022/10/05 09:13:36;;;;;;;;;;;;;;;16.62;68.09277;101344.3;;;;-75
2022/10/05 09:18:40;;;;;;;;;;;;;;;16.68;67.72949;101341;;;;-74
2022/10/05 09:23:38;;;;;;;;;;;;;;;16.78;67.44043;101341.6;;;;-75
2022/10/05 09:28:33;;;;;;;5.5;1.6;;;;;;;;;;;;;-75
2022/10/05 09:28:54;;;;;;;;;;;;;;;16.8;66.7334;101334.4;;;;-74
2022/10/05 09:33:43;;;;;;;;;;;;;;;16.83;66.66016;101319.5;;;;-76
2022/10/05 09:38:31;;;;;;;;;;;;;;;16.91;66.62598;101324.7;;;;-74
2022/10/05 09:43:40;;;;;;;;;;;;;;;16.91;66.40039;101322;;;;-75
2022/10/05 09:48:47;;;;;;;;;;;;;;;17.06;66.1875;101320.7;;;;-75
2022/10/05 09:53:42;;;;;;;;;;;;;;;17.02;66.11426;101322.9;;;;-74
2022/10/05 09:58:40;;;;;;;5.4;1.4;;;;;;;;;;;;;-72
2022/10/05 09:59:08;;;;;;;;;;;;;;;17.09;65.7959;101315.7;;;;-72
2022/10/05 10:03:41;;;;;;;;;;;;;;;17.19;65.77734;101313.3;;;;-71
2022/10/05 10:08:35;;;;;;;;;;;;;;;17.21;65.42969;101312.3;;;;-70
2022/10/05 10:13:52;;;;;;;;;;;;;;;17.21;65.26074;101315.2;;;;-70
2022/10/05 10:18:44;;;;;;;;;;;;;;;17.19;64.9873;101320.5;;;;-74
2022/10/05 10:23:31;;;;;;;;;;;;;;;17.19;64.78418;101314.2;;;;-75
2022/10/05 10:28:46;;;;;;;;;;;;;;;17.15;65.08496;101335.4;;;;-74
2022/10/05 10:29:04;;;;;;;4.6;1.4;;;;;;;;;;;;;-74
2022/10/05 10:33:36;;;;;;;;;;;;;;;17.11;64.85156;101323.6;;;;-75
2022/10/05 10:38:39;;;;;;;;;;;;;;;17.14;64.5957;101321;;;;-76
2022/10/05 10:43:38;;;;;;;;;;;;;;;17.12;64.77344;101324.4;;;;-74
2022/10/05 10:48:50;;;;;;;;;;;;;;;17.15;64.52051;101326.9;;;;-73
2022/10/05 10:53:37;;;;;;;;;;;;;;;17.09;64.57813;101326;;;;-74
2022/10/05 10:58:38;;;;;;;;;;;;;;;17.14;64.5957;101334.3;;;;-74
2022/10/05 10:58:53;;;;;;;3.3;1.3;;;;;;;;;;;;;-74
2022/10/05 11:03:53;;;;;;;;;;;;;;;17.15;64.66602;101334.1;;;;-74
2022/10/05 11:08:45;;;;;;;;;;;;;;;17.12;64.60547;101336.2;;;;-77
2022/10/05 11:13:44;;;;;;;;;;;;;;;17.05;64.62891;101348.2;;;;-76
2022/10/05 11:18:30;;;;;;;;;;;;;;;17.02;64.60156;101324.1;;;;-74
2022/10/05 11:23:42;;;;;;;;;;;;;;;17.03;64.93066;101329.8;;;;-75
2022/10/05 11:28:38;;;;;;;;;;;;;;;17.05;64.71875;101324.5;;;;-75
2022/10/05 11:28:52;;;;;;;3.5;1.4;;;;;;;;;;;;;-75
2022/10/05 11:33:41;;;;;;;;;;;;;;;17.03;64.65918;101310.1;;;;-74
2022/10/05 11:38:45;;;;;;;;;;;;;;;17.03;64.86328;101308.7;;;;-75
2022/10/05 11:43:41;;;;;;;;;;;;;;;17.05;64.94531;101302.8;;;;-74
2022/10/05 11:48:39;;;;;;;;;;;;;;;17.08;65.05078;101293.5;;;;-73
2022/10/05 11:53:31;;;;;;;;;;;;;;;17.09;65.07422;101293.6;;;;-74
2022/10/05 11:58:30;;;;;;;;;;;;;;;17.15;64.99316;101276.5;;;;-74
2022/10/05 11:58:44;;;;;;;5.5;2.3;;;;;;;;;;;;;-74
2022/10/05 12:03:37;;;;;;;;;;;;;;;17.18;64.7959;101277.1;;;;-75
2022/10/05 12:08:31;;;;;;;;;;;;;;;17.19;64.78418;101268.5;;;;-75
2022/10/05 12:13:34;;;;;;;;;;;;;;;17.23;64.81348;101263.5;;;;-73
2022/10/05 12:18:30;;;;;;;;;;;;;;;17.29;64.72168;101246.7;;;;-74
2022/10/05 12:23:32;;;;;;;;;;;;;;;17.35;64.1875;101225.9;;;;-75
2022/10/05 12:28:32;;;;;;;;;;;;;;;17.4;64.3291;101244.5;;;;-75
2022/10/05 12:28:44;;;;;;;5.6;2;;;;;;;;;;;;;-75
2022/10/05 12:33:34;;;;;;;;;;;;;;;17.47;64.43164;101241.4;;;;-74
2022/10/05 12:38:31;;;;;;;;;;;;;;;17.52;64.26758;101244.4;;;;-75
2022/10/05 12:43:31;;;;;;;;;;;;;;;17.58;64.29883;101242.7;;;;-73
2022/10/05 12:48:34;;;;;;;;;;;;;;;17.63;64.25098;101236.4;;;;-75
2022/10/05 12:53:34;;;;;;;;;;;;;;;17.71;64.22754;101219.8;;;;-75
2022/10/05 12:58:31;;;;;;;;;;;;;;;17.83;63.89551;101217.8;;;;-74
2022/10/05 12:58:45;;;;;;;3.9;2;;;;;;;;;;;;;-74
2022/10/05 13:03:28;;;;;;;;;;;;;;;17.92;63.55762;101215.8;;;;-79
2022/10/05 13:08:30;;;;;;;;;;;;;;;17.96;63.18945;101204.8;;;;-74
2022/10/05 13:13:38;;;;;;;;;;;;;;;18.07;63.08105;101205.6;;;;-75
2022/10/05 13:18:31;;;;;;;;;;;;;;;18.18;62.8584;101202.8;;;;-74
2022/10/05 13:23:34;;;;;;;;;;;;;;;18.21;62.51172;101198;;;;-75
2022/10/05 13:28:29;;;;;;;;;;;;;;;18.28;62.31836;101200.6;;;;-74
2022/10/05 13:28:42;;;;;;;5.3;1.7;;;;;;;;;;;;;-75
2022/10/05 13:33:29;;;;;;;;;;;;;;;18.33;62.03125;101193;;;;-75
2022/10/05 13:38:30;;;;;;;;;;;;;;;18.33;61.88281;101192.6;;;;-74
2022/10/05 13:43:37;;;;;;;;;;;;;;;18.37;61.97949;101203;;;;-76
2022/10/05 13:48:38;;;;;;;;;;;;;;;18.34;61.9873;101194.5;;;;-74
2022/10/05 13:53:32;;;;;;;;;;;;;;;18.29;62.02637;101203.5;;;;-75
2022/10/05 13:58:32;;;;;;;;;;;;;;;18.3;61.87891;101202.2;;;;-79
2022/10/05 13:58:45;;;;;;;4.6;1.6;;;;;;;;;;;;;-78
2022/10/05 14:03:33;;;;;;;;;;;;;;;18.34;61.77051;101210.5;;;;-75
2022/10/05 14:08:28;;;;;;;;;;;;;;;18.35;61.78516;101211.8;;;;-77
2022/10/05 14:13:29;;;;;;;;;;;;;;;18.54;61.76563;101209.1;;;;-76
2022/10/05 14:18:31;;;;;;;;;;;;;;;18.66;61.46387;101208.3;;;;-75
2022/10/05 14:23:30;;;;;;;;;;;;;;;18.63;60.83691;101202;;;;-76
2022/10/05 14:28:32;;;;;;;;;;;;;;;18.56;61.29102;101203.7;;;;-74
2022/10/05 14:28:44;;;;;;;4.8;1.5;;;;;;;;;;;;;-75
2022/10/05 14:33:28;;;;;;;;;;;;;;;18.55;61.11035;101199.4;;;;-74
2022/10/05 14:38:28;;;;;;;;;;;;;;;18.58;61.30664;101193.2;;;;-76
2022/10/05 14:43:27;;;;;;;;;;;;;;;18.56;61.16797;101205.9;;;;-76
2022/10/05 14:48:27;;;;;;;;;;;;;;;18.51;61.06934;101211.2;;;;-75
2022/10/05 14:53:27;;;;;;;;;;;;;;;18.5;61.31738;101205.8;;;;-75
2022/10/05 14:58:37;;;;;;;;;;;;;;;18.39;61.03223;101196.8;;;;-75
2022/10/05 14:58:58;;;;;;;4.9;1.5;;;;;;;;;;;;;-75
2022/10/05 15:03:35;;;;;;;;;;;;;;;18.34;61.51172;101194.9;;;;-75
2022/10/05 15:08:43;;;;;;;;;;;;;;;18.2;61.49316;101195.2;;;;-74
2022/10/05 15:13:28;;;;;;;;;;;;;;;18.16;61.50781;101213.1;;;;-75
2022/10/05 15:18:33;;;;;;;;;;;;;;;18.02;61.61328;101209;;;;-74
2022/10/05 15:23:30;;;;;;;;;;;;;;;17.99;61.56445;101207.4;;;;-71
2022/10/05 15:28:33;;;;;;;;;;;;;;;17.93;61.81738;101213.3;;;;-70
2022/10/05 15:28:54;;;;;;;3.2;1.4;;;;;;;;;;;;;-72
2022/10/05 15:33:30;;;;;;;;;;;;;;;17.85;62.20117;101213.4;;;;-71
2022/10/05 15:38:27;;;;;;;;;;;;;;;17.79;62.52051;101217.6;;;;-71
2022/10/05 15:43:27;;;;;;;;;;;;;;;17.73;62.6709;101222.3;;;;-73
2022/10/05 15:48:29;;;;;;;;;;;;;;;17.73;62.81836;101222.6;;;;-74
2022/10/05 15:53:32;;;;;;;;;;;;;;;17.66;63.05664;101227;;;;-75
2022/10/05 15:58:37;;;;;;;;;;;;;;;17.52;63.48926;101225.2;;;;-70
2022/10/05 15:58:59;;;;;;;5.8;1.5;;;;;;;;;;;;;-73
2022/10/05 16:03:29;;;;;;;;;;;;;;;17.51;63.54297;101220.9;;;;-72
2022/10/05 16:08:55;;;;;;;;;;;;;;;17.46;63.80762;101215.7;;;;-71
2022/10/05 16:13:33;;;;;;;;;;;;;;;17.45;63.88574;101219.4;;;;-74
2022/10/05 16:18:37;;;;;;;;;;;;;;;17.38;64.17969;101216.1;;;;-76
2022/10/05 16:23:37;;;;;;;;;;;;;;;17.36;64.17676;101226.4;;;;-74
2022/10/05 16:28:31;;;;;;;;;;;;;;;17.35;64.36816;101225.1;;;;-75
2022/10/05 16:28:57;;;;;;;3.5;1.6;;;;;;;;;;;;;-75
2022/10/05 16:33:33;;;;;;;;;;;;;;;17.26;65.02051;101223.4;;;;-71
2022/10/05 16:38:32;;;;;;;;;;;;;;;17.23;65.10547;101232.8;;;;-70
2022/10/05 16:43:34;;;;;;;;;;;;;;;17.21;65.11426;101233.5;;;;-71
2022/10/05 16:48:29;;;;;;;;;;;;;;;17.16;65.46875;101223.1;;;;-71
2022/10/05 16:53:30;;;;;;;;;;;;;;;17.09;65.66113;101231.9;;;;-74
2022/10/05 16:58:28;;;;;;;;;;;;;;;17.09;65.71777;101223;;;;-75
2022/10/05 16:59:03;;;;;;;4.8;1.8;;;;;;;;;;;;;-75
2022/10/05 17:03:30;;;;;;;;;;;;;;;17.04;65.98145;101233.3;;;;-75
2022/10/05 17:08:44;;;;;;;;;;;;;;;17.02;66.31543;101247;;;;-74
2022/10/05 17:13:37;;;;;;;;;;;;;;;17.02;66.53125;101248.9;;;;-76
2022/10/05 17:18:31;;;;;;;;;;;;;;;16.99;66.72852;101251.5;;;;-76
2022/10/05 17:23:42;;;;;;;;;;;;;;;16.98;66.91992;101247.3;;;;-75
2022/10/05 17:28:38;;;;;;;;;;;;;;;16.96;67.23145;101245.9;;;;-75
2022/10/05 17:29:14;;;;;;;7.2;1.8;;;;;;;;;;;;;-77
2022/10/05 17:33:29;;;;;;;;;;;;;;;16.96;67.10742;101264.2;;;;-75
2022/10/05 17:38:40;;;;;;;;;;;;;;;16.95;67.53516;101264.1;;;;-74
2022/10/05 17:43:31;;;;;;;;;;;;;;;16.95;67.56836;101268;;;;-74
2022/10/05 17:48:38;;;;;;;;;;;;;;;16.94;67.71191;101264.5;;;;-76
2022/10/05 17:58:39;;;;;;;;;;;;;;;16.94;68.42188;101297.1;;;;-75
2022/10/05 17:59:03;;;;;;;4.7;1.7;;;;;;;;;;;;;-75
2022/10/05 18:03:39;;;;;;;;;;;;;;;16.9;69.82422;101301.2;;;;-76
2022/10/05 18:08:39;;;;;;;;;;;;;;;16.79;71.45215;101313.2;;;;-76
2022/10/05 18:13:37;;;;;;;;;;;;;;;16.63;72.97754;101318.5;;;;-75
2022/10/05 18:18:53;;;;;;;;;;;;;;;16.52;73.86914;101328.5;;;;-74
2022/10/05 18:23:34;;;;;;;;;;;;;;;16.5;74.59668;101334.2;;;;-74
2022/10/05 18:28:33;;;;;;;;;;;;;;;16.44;73.30664;101344.9;;;;-72
2022/10/05 18:29:12;;;;;;;6.9;2.5;;;;;;;;;;;;;-71
2022/10/05 18:33:40;;;;;;;;;;;;;;;16.39;73.60059;101358.4;;;;-71
2022/10/05 18:38:35;;;;;;;;;;;;;;;16.28;75.22363;101389.6;;;;-75
2022/10/05 18:43:32;;;;;;;;;;;;;;;16.21;75.59277;101456.3;;;;-75
2022/10/05 18:48:34;;;;;;;;;;;;;;;16.13;74.35547;101452.7;;;;-77
2022/10/05 18:53:33;;;;;;;;;;;;;;;16.03;73.95703;101449.4;;;;-74
2022/10/05 18:58:28;;;;;;;;;;;;;;;15.89;73.52832;101455.3;;;;-76
2022/10/05 18:59:09;;;;;;;5.8;1.4;;;;;;;;;;;;;-75
2022/10/05 19:03:32;;;;;;;;;;;;;;;15.76;73.31641;101468.9;;;;-77
2022/10/05 19:08:31;;;;;;;;;;;;;;;15.63;73.50879;101487.5;;;;-75
2022/10/05 19:13:36;;;;;;;;;;;;;;;15.54;73.20215;101492.7;;;;-75
2022/10/05 19:18:41;;;;;;;;;;;;;;;15.46;72.97656;101515;;;;-74
2022/10/05 19:23:36;;;;;;;;;;;;;;;15.4;73.35742;101539.1;;;;-75
2022/10/05 19:28:31;;;;;;;;;;;;;;;15.32;73.43457;101547.6;;;;-75
2022/10/05 19:29:10;;;;;;;4.4;0.9;;;;;;;;;;;;;-75
2022/10/05 19:33:34;;;;;;;;;;;;;;;15.26;73.66113;101563.2;;;;-75
2022/10/05 19:38:30;;;;;;;;;;;;;;;15.19;73.62695;101558.6;;;;-76
2022/10/05 19:43:38;;;;;;;;;;;;;;;15.15;73.87695;101578;;;;-75
2022/10/05 19:45:17;;;;;;;;;;;;;;;15.21;73.70605;101583.5;;;;-75
2022/10/05 19:49:27;;;;;;;;;;;;;;;15.1;73.37598;101599.3;;;;-75
2022/10/05 19:54:24;;;;;;;;;;;;;;;15.05;73.53613;101607.4;;;;-75
2022/10/05 19:59:13;;;;;;;4;0.7;;;;;;;;;;;;;-75
2022/10/05 19:59:25;;;;;;;;;;;;;;;15;74.03125;101624.2;;;;-75
2022/10/05 20:04:17;;;;;;;;;;;;;;;14.97;73.30859;101630;;;;-75
2022/10/05 20:09:24;;;;;;;;;;;;;;;14.94;73.71875;101640.8;;;;-75
2022/10/05 20:14:31;;;;;;;;;;;;;;;14.87;73.42676;101649.6;;;;-75
2022/10/05 20:24:17;;;;;;;;;;;;;;;14.77;73.4541;101672.1;;;;-75
2022/10/05 20:29:11;;;;;;;3.5;0.8;;;;;;;;;;;;;-75
2022/10/05 20:29:20;;;;;;;;;;;;;;;14.74;72.87891;101675.8;;;;-73
2022/10/05 20:34:16;;;;;;;;;;;;;;;14.68;73.1709;101683.3;;;;-75
2022/10/05 20:39:17;;;;;;;;;;;;;;;14.62;72.95996;101689.9;;;;-75
2022/10/05 20:44:16;;;;;;;;;;;;;;;14.58;73.03223;101695.9;;;;-75
2022/10/05 20:49:16;;;;;;;;;;;;;;;14.55;72.72559;101710.8;;;;-74
2022/10/05 20:54:17;;;;;;;;;;;;;;;14.51;72.79688;101719.2;;;;-74
2022/10/05 20:59:09;;;;;;;3.8;0.7;;;;;;;;;;;;;-73
2022/10/05 20:59:18;;;;;;;;;;;;;;;14.47;72.74414;101713.5;;;;-74
2022/10/05 21:04:17;;;;;;;;;;;;;;;14.43;72.74023;101717.9;;;;-74
2022/10/05 21:09:20;;;;;;;;;;;;;;;14.39;72.62012;101723;;;;-76
2022/10/05 21:14:16;;;;;;;;;;;;;;;14.34;72.60059;101728.5;;;;-74
2022/10/05 21:19:41;;;;;;;;;;;;;;;14.34;72.82422;101737.5;;;;-73
2022/10/05 21:23:50;;;;;;;;;;;;;;;14.26;73.02344;101749;;;;-74
2022/10/05 21:28:49;;;;;;;;;;;;;;;14.27;73.08203;101761;;;;-74
2022/10/05 21:29:10;;;;;;;3.6;0.7;;;;;;;;;;;;;-74
2022/10/05 21:33:49;;;;;;;;;;;;;;;14.3;73.79102;101778.3;;;;-74
2022/10/05 21:38:49;;;;;;;;;;;;;;;14.26;74.12012;101772;;;;-75
2022/10/05 21:43:51;;;;;;;;;;;;;;;14.26;74.01953;101776.3;;;;-75
2022/10/05 21:48:49;;;;;;;;;;;;;;;14.24;74.19531;101775.3;;;;-74
2022/10/05 21:53:51;;;;;;;;;;;;;;;14.28;74.31152;101791;;;;-74
2022/10/05 21:58:49;;;;;;;;;;;;;;;14.25;74.64453;101798.4;;;;-75
2022/10/05 21:59:12;;;;;;;2.4;0.7;;;;;;;;;;;;;-75
2022/10/05 22:03:49;;;;;;;;;;;;;;;14.25;74.96777;101817.6;;;;-75
2022/10/05 22:08:49;;;;;;;;;;;;;;;14.28;75.08496;101832.5;;;;-75
2022/10/05 22:13:49;;;;;;;;;;;;;;;14.26;74.5;101845.7;;;;-76
2022/10/05 22:18:52;;;;;;;;;;;;;;;14.18;74.37305;101851.9;;;;-75
2022/10/05 22:23:49;;;;;;;;;;;;;;;14.09;74.00195;101856.4;;;;-74
2022/10/05 22:28:49;;;;;;;;;;;;;;;14;73.94043;101870.8;;;;-77
2022/10/05 22:29:13;;;;;;;6.2;1.1;;;;;;;;;;;;;-74
2022/10/05 22:33:49;;;;;;;;;;;;;;;13.9;73.64551;101883.1;;;;-74
2022/10/05 22:38:49;;;;;;;;;;;;;;;13.81;73.42969;101889.9;;;;-76
2022/10/05 22:43:50;;;;;;;;;;;;;;;13.74;73.00391;101898.4;;;;-75
2022/10/05 22:48:49;;;;;;;;;;;;;;;13.67;73.02734;101913.4;;;;-75
2022/10/05 22:53:49;;;;;;;;;;;;;;;13.57;72.93262;101916.6;;;;-75
2022/10/05 22:58:49;;;;;;;;;;;;;;;13.49;72.33789;101921.5;;;;-74
2022/10/05 22:59:14;;;;;;;3;0.7;;;;;;;;;;;;;-75
2022/10/05 23:03:49;;;;;;;;;;;;;;;13.45;72.24121;101929.7;;;;-76
2022/10/05 23:08:49;;;;;;;;;;;;;;;13.42;72.27051;101935.8;;;;-75
2022/10/05 23:13:49;;;;;;;;;;;;;;;13.37;72.21777;101934.8;;;;-74
2022/10/05 23:18:50;;;;;;;;;;;;;;;13.31;72.19629;101944.6;;;;-74
2022/10/05 23:23:50;;;;;;;;;;;;;;;13.31;71.90527;101957.1;;;;-74
2022/10/05 23:28:50;;;;;;;;;;;;;;;13.3;72.06152;101969.2;;;;-75
2022/10/05 23:29:15;;;;;;;4.6;1;;;;;;;;;;;;;-76
2022/10/05 23:33:49;;;;;;;;;;;;;;;13.24;71.89551;101990.5;;;;-70
2022/10/05 23:38:49;;;;;;;;;;;;;;;13.18;71.70703;102000.5;;;;-70
2022/10/05 23:43:49;;;;;;;;;;;;;;;13.13;71.70801;102006;;;;-75
2022/10/05 23:48:49;;;;;;;;;;;;;;;13.09;71.70313;102017.4;;;;-73
2022/10/05 23:53:49;;;;;;;;;;;;;;;13.06;71.65234;102031.2;;;;-74
2022/10/05 23:58:49;;;;;;;;;;;;;;;13.01;71.47754;102047.4;;;;-75
2022/10/05 23:59:16;;;;;;;6.8;1.2;;;;;;;;;;;;;-75
